createdAt,value
2019-06-20T00:02:06.607Z,23.90
2019-06-20T00:04:35.064Z,23.88
2019-06-20T00:07:03.466Z,23.84
2019-06-20T00:09:32.049Z,23.64
2019-06-20T00:12:00.445Z,23.28
2019-06-20T00:14:29.061Z,23.02
2019-06-20T00:16:59.543Z,22.99
2019-06-20T00:19:27.610Z,23.05
2019-06-20T00:21:56.019Z,23.15
2019-06-20T00:24:24.444Z,23.22
2019-06-20T00:26:52.914Z,23.27
2019-06-20T00:29:21.309Z,23.25
2019-06-20T00:31:49.740Z,23.24
2019-06-20T00:34:18.139Z,23.20
2019-06-20T00:36:46.553Z,23.22
2019-06-20T00:39:15.004Z,23.26
2019-06-20T00:41:43.375Z,23.29
2019-06-20T00:44:11.779Z,23.28
2019-06-20T00:46:40.231Z,23.23
2019-06-20T00:49:08.628Z,23.18
2019-06-20T00:51:37.028Z,23.09
2019-06-20T00:54:05.454Z,23.07
2019-06-20T00:56:33.852Z,23.08
2019-06-20T00:59:02.252Z,23.03
2019-06-20T01:01:30.680Z,23.03
2019-06-20T01:03:59.076Z,22.98
2019-06-20T01:06:27.470Z,22.96
2019-06-20T01:08:55.956Z,22.92
2019-06-20T01:11:24.314Z,22.87
2019-06-20T01:13:53.029Z,22.81
2019-06-20T01:16:21.626Z,22.79
2019-06-20T01:18:50.028Z,22.76
2019-06-20T01:21:18.426Z,22.74
2019-06-20T01:23:46.854Z,22.76
2019-06-20T01:26:15.524Z,22.74
2019-06-20T01:28:43.922Z,22.74
2019-06-20T01:31:12.918Z,22.74
2019-06-20T01:33:41.364Z,22.73
2019-06-20T01:36:09.770Z,22.71
2019-06-20T01:38:38.206Z,22.71
2019-06-20T01:41:06.627Z,22.79
2019-06-20T01:43:49.379Z,22.80
2019-06-20T01:46:05.234Z,22.82
2019-06-20T01:48:33.647Z,22.86
2019-06-20T01:51:02.099Z,22.87
2019-06-20T01:53:30.694Z,22.96
2019-06-20T01:55:59.089Z,23.00
2019-06-20T01:58:27.496Z,22.99
2019-06-20T02:00:56.242Z,22.92
2019-06-20T02:03:24.630Z,22.88
2019-06-20T02:05:53.036Z,22.96
2019-06-20T02:08:21.538Z,23.04
2019-06-20T02:10:50.003Z,23.12
2019-06-20T02:13:18.397Z,23.15
2019-06-20T02:15:46.955Z,23.18
2019-06-20T02:18:15.522Z,23.18
2019-06-20T02:20:49.648Z,23.07
2019-06-20T02:23:18.235Z,22.97
2019-06-20T02:25:46.974Z,23.02
2019-06-20T02:28:15.728Z,23.03
2019-06-20T02:30:44.560Z,23.08
2019-06-20T02:33:13.136Z,23.13
2019-06-20T02:35:41.676Z,23.16
2019-06-20T02:38:10.160Z,23.12
2019-06-20T02:40:38.826Z,23.13
2019-06-20T02:43:07.660Z,23.23
2019-06-20T02:45:38.843Z,23.29
2019-06-20T02:48:07.503Z,23.34
2019-06-20T02:50:36.040Z,23.35
2019-06-20T02:53:05.599Z,23.37
2019-06-20T02:55:34.062Z,23.33
2019-06-20T02:58:02.529Z,23.27
2019-06-20T03:00:45.992Z,23.25
2019-06-20T03:03:14.396Z,23.24
2019-06-20T03:05:42.875Z,23.28
2019-06-20T03:08:11.350Z,23.28
2019-06-20T03:10:39.849Z,23.26
2019-06-20T03:13:09.519Z,23.25
2019-06-20T03:15:38.306Z,23.19
2019-06-20T03:18:06.762Z,23.18
2019-06-20T03:20:35.158Z,23.12
2019-06-20T03:23:03.847Z,23.09
2019-06-20T03:25:32.237Z,23.10
2019-06-20T03:28:00.810Z,23.10
2019-06-20T03:30:29.525Z,23.06
2019-06-20T03:32:57.923Z,23.04
2019-06-20T03:35:26.552Z,23.04
2019-06-20T03:37:55.140Z,23.04
2019-06-20T03:40:23.539Z,23.05
2019-06-20T03:42:51.938Z,23.02
2019-06-20T03:45:20.498Z,22.97
2019-06-20T03:47:48.922Z,22.90
2019-06-20T03:50:17.371Z,22.83
2019-06-20T03:52:47.634Z,22.70
2019-06-20T03:55:16.172Z,22.52
2019-06-20T03:57:44.570Z,22.30
2019-06-20T04:00:14.873Z,22.17
2019-06-20T04:02:43.258Z,22.14
2019-06-20T04:05:11.696Z,22.13
2019-06-20T04:07:41.817Z,22.15
2019-06-20T04:10:10.220Z,22.16
2019-06-20T04:12:38.621Z,22.16
2019-06-20T04:15:18.475Z,22.12
2019-06-20T04:17:37.608Z,22.07
2019-06-20T04:20:06.839Z,21.99
2019-06-20T04:22:35.381Z,21.95
2019-06-20T04:25:03.964Z,21.93
2019-06-20T04:27:32.354Z,21.93
2019-06-20T04:30:00.783Z,21.94
2019-06-20T04:32:29.180Z,21.97
2019-06-20T04:34:57.592Z,22.02
2019-06-20T04:37:26.014Z,22.07
2019-06-20T04:39:54.407Z,22.16
2019-06-20T04:42:22.807Z,22.22
2019-06-20T04:44:52.873Z,22.26
2019-06-20T04:47:21.306Z,22.33
2019-06-20T04:49:49.768Z,22.46
2019-06-20T04:52:18.242Z,22.56
2019-06-20T04:54:46.588Z,22.64
2019-06-20T04:57:15.009Z,22.68
2019-06-20T04:59:43.424Z,22.70
2019-06-20T05:02:14.853Z,22.65
2019-06-20T05:04:41.968Z,22.60
2019-06-20T05:07:21.144Z,22.58
2019-06-20T05:09:49.565Z,22.58
2019-06-20T05:12:18.131Z,22.60
2019-06-20T05:14:46.703Z,22.67
2019-06-20T05:17:15.097Z,22.71
2019-06-20T05:19:43.508Z,22.79
2019-06-20T05:22:11.949Z,22.86
2019-06-20T05:24:40.453Z,22.87
2019-06-20T05:27:08.846Z,22.91
2019-06-20T05:29:37.412Z,22.89
2019-06-20T05:32:05.808Z,22.94
2019-06-20T05:34:34.207Z,23.07
2019-06-20T05:37:02.647Z,23.19
2019-06-20T05:39:31.045Z,23.24
2019-06-20T05:41:59.454Z,23.22
2019-06-20T05:44:28.076Z,23.27
2019-06-20T05:47:11.376Z,23.34
2019-06-20T05:49:26.588Z,23.34
2019-06-20T05:51:55.012Z,23.36
2019-06-20T05:54:23.410Z,23.47
2019-06-20T05:56:51.884Z,23.48
2019-06-20T05:59:20.318Z,23.50
2019-06-20T06:01:48.723Z,23.51
2019-06-20T06:04:17.115Z,23.50
2019-06-20T06:06:45.538Z,23.46
2019-06-20T06:09:13.932Z,23.44
2019-06-20T06:11:42.334Z,23.42
2019-06-20T06:14:10.810Z,23.50
2019-06-20T06:16:39.234Z,23.60
2019-06-20T06:19:07.626Z,23.63
2019-06-20T06:21:36.130Z,23.59
2019-06-20T06:24:04.662Z,23.63
2019-06-20T06:26:33.117Z,23.71
2019-06-20T06:29:01.775Z,23.78
2019-06-20T06:31:30.451Z,23.86
2019-06-20T06:33:58.868Z,23.96
2019-06-20T06:36:27.869Z,24.04
2019-06-20T06:38:56.346Z,24.11
2019-06-20T06:41:24.740Z,24.13
2019-06-20T06:43:53.173Z,24.16
2019-06-20T06:46:21.566Z,24.17
2019-06-20T06:48:49.973Z,24.18
2019-06-20T06:51:18.459Z,24.14
2019-06-20T06:53:46.893Z,24.10
2019-06-20T06:56:15.282Z,24.05
2019-06-20T06:58:43.757Z,24.09
2019-06-20T07:01:12.228Z,24.13
2019-06-20T07:03:41.116Z,24.19
2019-06-20T07:06:09.615Z,24.30
2019-06-20T07:08:37.993Z,24.38
2019-06-20T07:11:06.461Z,24.47
2019-06-20T07:13:34.897Z,24.51
2019-06-20T07:16:04.073Z,24.54
2019-06-20T07:18:32.520Z,24.55
2019-06-20T07:21:01.282Z,24.59
2019-06-20T07:23:30.024Z,24.61
2019-06-20T07:25:58.491Z,24.68
2019-06-20T07:28:26.991Z,24.76
2019-06-20T07:30:55.385Z,24.78
2019-06-20T07:33:23.781Z,24.76
2019-06-20T07:35:52.301Z,24.81
2019-06-20T07:38:20.699Z,24.83
2019-06-20T07:40:49.201Z,24.96
2019-06-20T07:43:20.370Z,25.15
2019-06-20T07:46:02.110Z,25.35
2019-06-20T07:48:18.963Z,25.51
2019-06-20T07:50:47.617Z,25.64
2019-06-20T07:53:16.012Z,25.71
2019-06-20T07:55:44.411Z,25.81
2019-06-20T07:58:12.853Z,25.93
2019-06-20T08:00:41.290Z,26.04
2019-06-20T08:03:09.679Z,26.10
2019-06-20T08:05:38.089Z,26.12
2019-06-20T08:08:06.490Z,26.19
2019-06-20T08:10:34.963Z,26.24
2019-06-20T08:13:03.542Z,26.27
2019-06-20T08:15:31.951Z,26.35
2019-06-20T08:18:00.350Z,26.42
2019-06-20T08:20:29.046Z,26.53
2019-06-20T08:22:57.503Z,26.61
2019-06-20T08:25:25.862Z,26.68
2019-06-20T08:27:57.164Z,26.66
2019-06-20T08:30:33.164Z,26.65
2019-06-20T08:33:05.494Z,26.66
2019-06-20T08:35:32.869Z,26.75
2019-06-20T08:38:03.494Z,26.81
2019-06-20T08:40:35.430Z,26.82
2019-06-20T08:43:04.278Z,26.83
2019-06-20T08:45:33.790Z,26.85
2019-06-20T08:48:02.752Z,26.90
2019-06-20T08:50:31.871Z,26.88
2019-06-20T08:53:01.488Z,26.88
2019-06-20T08:55:30.748Z,26.88
2019-06-20T08:57:59.690Z,26.96
2019-06-20T09:00:30.599Z,26.98
2019-06-20T09:03:00.417Z,27.02
2019-06-20T09:05:30.878Z,27.07
2019-06-20T09:10:35.662Z,27.25
2019-06-20T09:13:04.532Z,27.34
2019-06-20T09:15:33.000Z,27.41
2019-06-20T09:18:02.931Z,27.51
2019-06-20T09:20:31.654Z,27.61
2019-06-20T09:23:01.105Z,27.69
2019-06-20T09:25:29.894Z,27.81
2019-06-20T09:28:00.448Z,27.91
2019-06-20T09:30:29.349Z,27.99
2019-06-20T09:32:57.934Z,28.08
2019-06-20T09:35:26.465Z,28.22
2019-06-20T09:37:55.215Z,28.28
2019-06-20T09:40:24.494Z,28.38
2019-06-20T09:42:53.015Z,28.53
2019-06-20T09:45:22.203Z,28.53
2019-06-20T09:47:52.156Z,28.60
2019-06-20T09:50:21.155Z,28.66
2019-06-20T09:52:51.323Z,28.69
2019-06-20T09:55:20.072Z,28.69
2019-06-20T09:57:49.190Z,28.75
2019-06-20T10:00:21.730Z,28.77
2019-06-20T10:02:51.974Z,28.80
2019-06-20T10:05:20.841Z,28.86
2019-06-20T10:07:50.312Z,28.95
2019-06-20T10:10:19.557Z,28.94
2019-06-20T10:12:48.118Z,28.94
2019-06-20T10:15:49.440Z,29.08
2019-06-20T10:18:17.853Z,29.30
2019-06-20T10:20:47.259Z,29.49
2019-06-20T10:23:15.751Z,29.57
2019-06-20T10:25:46.051Z,29.61
2019-06-20T10:28:14.357Z,29.75
2019-06-20T10:30:42.793Z,29.87
2019-06-20T10:33:11.197Z,29.98
2019-06-20T10:35:39.682Z,30.05
2019-06-20T10:38:08.299Z,30.05
2019-06-20T10:40:36.704Z,30.05
2019-06-20T10:43:05.631Z,29.98
2019-06-20T10:45:35.758Z,29.93
2019-06-20T10:48:04.613Z,29.94
2019-06-20T10:50:33.350Z,29.92
2019-06-20T10:53:01.810Z,29.97
2019-06-20T10:55:30.277Z,30.02
2019-06-20T10:57:58.691Z,30.09
2019-06-20T11:00:31.231Z,30.14
2019-06-20T11:02:57.959Z,30.13
2019-06-20T11:05:48.121Z,30.13
2019-06-20T11:08:16.730Z,30.14
2019-06-20T11:10:45.157Z,30.19
2019-06-20T11:13:13.649Z,30.16
2019-06-20T11:15:42.301Z,30.00
2019-06-20T11:18:10.828Z,29.86
2019-06-20T11:20:40.885Z,29.88
2019-06-20T11:23:09.457Z,30.00
2019-06-20T11:25:38.753Z,30.10
2019-06-20T11:28:08.040Z,30.32
2019-06-20T11:30:52.976Z,30.42
2019-06-20T11:33:07.073Z,30.53
2019-06-20T11:35:37.432Z,30.58
2019-06-20T11:38:05.768Z,30.70
2019-06-20T11:40:35.371Z,30.87
2019-06-20T11:43:04.379Z,31.08
2019-06-20T11:45:35.450Z,31.28
2019-06-20T11:48:03.009Z,31.38
2019-06-20T11:50:31.448Z,31.45
2019-06-20T11:52:59.837Z,31.51
2019-06-20T11:55:28.477Z,31.67
2019-06-20T11:57:56.897Z,31.79
2019-06-20T12:00:25.639Z,31.90
2019-06-20T12:02:54.038Z,31.94
2019-06-20T12:05:22.540Z,31.95
2019-06-20T12:07:51.052Z,31.95
2019-06-20T12:10:20.275Z,31.98
2019-06-20T12:12:49.120Z,31.98
2019-06-20T12:15:18.640Z,31.99
2019-06-20T12:17:47.376Z,31.96
2019-06-20T12:20:17.028Z,32.00
2019-06-20T12:22:46.617Z,31.98
2019-06-20T12:25:15.668Z,31.94
2019-06-20T12:27:45.477Z,31.99
2019-06-20T12:30:16.369Z,32.13
2019-06-20T12:32:44.884Z,32.24
2019-06-20T12:35:14.097Z,32.30
2019-06-20T12:37:42.905Z,32.34
2019-06-20T12:40:12.986Z,32.48
2019-06-20T12:42:43.047Z,32.61
2019-06-20T12:45:13.454Z,32.54
2019-06-20T12:47:42.050Z,32.40
2019-06-20T12:50:10.921Z,32.40
2019-06-20T12:52:40.734Z,32.47
2019-06-20T12:55:11.017Z,32.62
2019-06-20T12:57:40.358Z,32.75
2019-06-20T13:00:10.954Z,32.82
2019-06-20T13:02:40.485Z,32.84
2019-06-20T13:05:10.458Z,32.86
2019-06-20T13:07:40.498Z,32.99
2019-06-20T13:10:09.710Z,33.19
2019-06-20T13:12:40.670Z,33.29
2019-06-20T13:15:08.906Z,33.38
2019-06-20T13:17:38.259Z,33.42
2019-06-20T13:20:08.556Z,33.47
2019-06-20T13:22:39.004Z,33.37
2019-06-20T13:25:07.792Z,33.31
2019-06-20T13:27:36.217Z,33.31
2019-06-20T13:30:09.227Z,33.26
2019-06-20T13:32:38.434Z,33.08
2019-06-20T13:35:09.184Z,32.84
2019-06-20T13:37:38.453Z,32.64
2019-06-20T13:40:33.159Z,32.33
2019-06-20T13:43:01.622Z,32.10
2019-06-20T13:45:30.094Z,31.81
2019-06-20T13:47:58.740Z,31.62
2019-06-20T13:50:27.811Z,31.44
2019-06-20T13:52:56.220Z,31.23
2019-06-20T13:55:24.666Z,31.08
2019-06-20T13:57:53.228Z,30.90
2019-06-20T14:00:23.747Z,30.74
2019-06-20T14:02:52.246Z,30.67
2019-06-20T14:05:21.019Z,30.52
2019-06-20T14:07:52.911Z,30.41
2019-06-20T14:10:20.615Z,30.36
2019-06-20T14:12:49.029Z,30.23
2019-06-20T14:15:17.675Z,29.93
2019-06-20T14:17:47.222Z,29.16
2019-06-20T14:20:17.333Z,27.67
2019-06-20T14:22:45.741Z,26.16
2019-06-20T14:25:14.524Z,24.99
2019-06-20T14:27:43.982Z,23.74
2019-06-20T14:30:13.919Z,22.51
2019-06-20T14:32:43.290Z,21.56
2019-06-20T14:35:12.385Z,20.67
2019-06-20T14:37:43.378Z,19.85
2019-06-20T14:40:12.064Z,19.08
2019-06-20T14:42:40.459Z,18.68
2019-06-20T14:45:16.372Z,18.63
2019-06-20T14:47:44.769Z,18.53
2019-06-20T14:50:13.895Z,18.43
2019-06-20T14:52:44.582Z,18.50
2019-06-20T14:55:13.767Z,18.63
2019-06-20T14:57:44.604Z,18.61
2019-06-20T15:00:14.578Z,18.75
2019-06-20T15:02:45.380Z,18.82
2019-06-20T15:05:18.265Z,18.83
2019-06-20T15:07:47.404Z,18.99
2019-06-20T15:10:17.154Z,19.13
2019-06-20T15:12:46.420Z,19.27
2019-06-20T15:15:16.332Z,19.43
2019-06-20T15:17:46.786Z,19.56
2019-06-20T15:20:15.717Z,19.75
2019-06-20T15:22:46.746Z,19.88
2019-06-20T15:25:14.574Z,19.98
2019-06-20T15:27:43.054Z,20.10
2019-06-20T15:30:11.827Z,20.09
2019-06-20T15:32:53.340Z,20.03
2019-06-20T15:35:10.685Z,20.09
2019-06-20T15:37:39.105Z,20.19
2019-06-20T15:40:09.057Z,20.22
2019-06-20T15:42:37.692Z,20.33
2019-06-20T15:45:08.195Z,20.49
2019-06-20T15:47:36.954Z,20.66
2019-06-20T15:50:07.758Z,20.80
2019-06-20T15:52:36.341Z,20.85
2019-06-20T15:55:06.454Z,20.80
2019-06-20T15:57:34.870Z,20.71
2019-06-20T16:00:05.456Z,20.74
2019-06-20T16:02:33.837Z,20.82
2019-06-20T16:05:02.424Z,20.93
2019-06-20T16:07:30.990Z,21.01
2019-06-20T16:09:59.440Z,21.17
2019-06-20T16:12:27.850Z,21.27
2019-06-20T16:14:56.296Z,21.24
2019-06-20T16:17:24.847Z,21.35
2019-06-20T16:19:53.371Z,21.49
2019-06-20T16:22:22.071Z,21.53
2019-06-20T16:24:50.464Z,21.59
2019-06-20T16:27:18.876Z,21.71
2019-06-20T16:29:47.316Z,21.80
2019-06-20T16:32:15.731Z,21.89
2019-06-20T16:34:44.127Z,21.97
2019-06-20T16:37:12.579Z,22.01
2019-06-20T16:39:41.045Z,22.02
2019-06-20T16:42:09.525Z,22.07
2019-06-20T16:44:37.988Z,22.14
2019-06-20T16:47:06.392Z,22.21
2019-06-20T16:49:34.863Z,22.23
2019-06-20T16:52:03.356Z,22.19
2019-06-20T16:54:31.704Z,22.09
2019-06-20T16:57:00.111Z,21.98
2019-06-20T16:59:28.623Z,21.83
2019-06-20T17:01:57.192Z,21.79
2019-06-20T17:04:25.683Z,21.85
2019-06-20T17:06:54.107Z,21.95
2019-06-20T17:09:22.498Z,22.11
2019-06-20T17:11:50.966Z,22.33
2019-06-20T17:14:19.401Z,22.50
2019-06-20T17:16:47.969Z,22.70
2019-06-20T17:19:16.445Z,22.87
2019-06-20T17:21:44.853Z,22.97
2019-06-20T17:24:13.325Z,22.99
2019-06-20T17:26:41.726Z,22.97
2019-06-20T17:29:10.191Z,23.08
2019-06-20T17:31:38.657Z,22.77
2019-06-20T17:34:07.110Z,22.51
2019-06-20T17:36:35.601Z,22.43
2019-06-20T17:39:06.444Z,22.22
2019-06-20T17:41:34.946Z,22.02
2019-06-20T17:44:03.431Z,21.82
2019-06-20T17:46:31.834Z,21.62
2019-06-20T17:49:00.261Z,21.51
2019-06-20T17:51:28.695Z,21.51
2019-06-20T17:53:57.096Z,21.58
2019-06-20T17:56:25.481Z,21.67
2019-06-20T17:58:55.633Z,21.59
2019-06-20T18:01:23.986Z,21.62
2019-06-20T18:03:52.389Z,21.73
2019-06-20T18:06:20.914Z,21.83
2019-06-20T18:08:49.311Z,21.83
2019-06-20T18:11:17.736Z,21.85
2019-06-20T18:13:46.157Z,21.75
2019-06-20T18:16:24.669Z,21.69
2019-06-20T18:18:44.681Z,21.59
2019-06-20T18:21:13.194Z,21.52
2019-06-20T18:23:41.617Z,21.48
2019-06-20T18:26:10.017Z,21.37
2019-06-20T18:28:38.458Z,21.30
2019-06-20T18:31:06.917Z,21.24
2019-06-20T18:33:35.361Z,21.24
2019-06-20T18:36:04.135Z,21.24
2019-06-20T18:38:32.540Z,21.20
2019-06-20T18:41:00.942Z,21.12
2019-06-20T18:43:29.375Z,21.05
2019-06-20T18:45:57.788Z,21.06
2019-06-20T18:48:26.201Z,21.14
2019-06-20T18:50:54.791Z,21.15
2019-06-20T18:53:23.329Z,21.21
2019-06-20T18:55:51.729Z,21.27
2019-06-20T18:58:20.160Z,21.25
2019-06-20T19:00:48.567Z,21.20
2019-06-20T19:03:16.963Z,21.17
2019-06-20T19:05:45.431Z,21.13
2019-06-20T19:08:13.807Z,21.07
2019-06-20T19:10:42.306Z,21.01
2019-06-20T19:13:12.984Z,20.99
2019-06-20T19:15:40.938Z,20.89
2019-06-20T19:18:09.358Z,20.72
2019-06-20T19:20:37.792Z,20.67
2019-06-20T19:23:06.185Z,20.59
2019-06-20T19:25:34.607Z,20.51
2019-06-20T19:28:03.319Z,20.37
2019-06-20T19:30:51.651Z,20.21
2019-06-20T19:33:20.207Z,20.09
2019-06-20T19:35:48.692Z,19.91
2019-06-20T19:38:17.173Z,19.86
2019-06-20T19:40:47.823Z,19.85
2019-06-20T19:43:16.308Z,19.79
2019-06-20T19:45:45.042Z,19.73
2019-06-20T19:48:14.558Z,19.66
2019-06-20T19:50:43.609Z,19.64
2019-06-20T19:53:13.256Z,19.60
2019-06-20T19:55:42.901Z,19.57
2019-06-20T19:58:11.440Z,19.56
2019-06-20T20:00:39.984Z,19.58
2019-06-20T20:03:08.661Z,19.57
2019-06-20T20:05:37.220Z,19.56
2019-06-20T20:08:06.258Z,19.61
2019-06-20T20:10:45.900Z,19.65
2019-06-20T20:13:15.563Z,19.66
2019-06-20T20:15:45.087Z,19.60
2019-06-20T20:18:14.170Z,19.53
2019-06-20T20:20:47.364Z,19.47
2019-06-20T20:23:14.841Z,19.41
2019-06-20T20:25:43.431Z,19.38
2019-06-20T20:28:11.829Z,19.39
2019-06-20T20:30:40.401Z,19.32
2019-06-20T20:33:08.829Z,19.28
2019-06-20T20:35:37.298Z,19.27
2019-06-20T20:38:05.971Z,19.21
2019-06-20T20:40:34.388Z,19.18
2019-06-20T20:43:02.902Z,19.18
2019-06-20T20:45:31.254Z,19.23
2019-06-20T20:47:59.691Z,19.21
2019-06-20T20:50:28.088Z,19.25
2019-06-20T20:52:56.584Z,19.33
2019-06-20T20:55:24.997Z,19.36
2019-06-20T20:57:53.464Z,19.44
2019-06-20T21:00:27.176Z,19.53
2019-06-20T21:02:55.867Z,19.59
2019-06-20T21:05:24.323Z,19.64
2019-06-20T21:07:52.896Z,19.68
2019-06-20T21:10:22.173Z,19.68
2019-06-20T21:12:50.574Z,19.66
2019-06-20T21:15:19.517Z,19.69
2019-06-20T21:17:48.211Z,19.64
2019-06-20T21:20:18.944Z,19.59
2019-06-20T21:22:47.347Z,19.57
2019-06-20T21:25:15.775Z,19.56
2019-06-20T21:27:44.188Z,19.54
2019-06-20T21:30:13.323Z,19.46
2019-06-20T21:32:41.847Z,19.45
2019-06-20T21:35:10.622Z,19.46
2019-06-20T21:37:39.014Z,19.43
2019-06-20T21:40:08.091Z,19.38
2019-06-20T21:42:36.621Z,19.32
2019-06-20T21:45:09.685Z,19.27
2019-06-20T21:47:38.189Z,19.20
2019-06-20T21:50:07.362Z,19.11
2019-06-20T21:52:35.755Z,19.06
2019-06-20T21:55:05.623Z,19.04
2019-06-20T21:57:34.008Z,19.07
2019-06-20T22:00:02.683Z,19.07
2019-06-20T22:02:31.190Z,19.10
2019-06-20T22:04:59.589Z,19.15
2019-06-20T22:07:27.974Z,19.14
2019-06-20T22:09:56.410Z,19.08
2019-06-20T22:12:24.807Z,19.05
2019-06-20T22:14:53.214Z,19.04
2019-06-20T22:17:21.883Z,19.04
2019-06-20T22:19:50.275Z,19.00
2019-06-20T22:22:18.902Z,18.96
2019-06-20T22:24:47.403Z,18.95
2019-06-20T22:27:15.804Z,18.94
2019-06-20T22:29:44.198Z,18.95
2019-06-20T22:32:12.640Z,18.95
2019-06-20T22:34:41.039Z,18.91
2019-06-20T22:37:09.459Z,18.88
2019-06-20T22:39:37.881Z,18.79
2019-06-20T22:42:06.345Z,18.75
2019-06-20T22:44:35.227Z,18.74
2019-06-20T22:47:03.686Z,18.70
2019-06-20T22:49:32.087Z,18.67
2019-06-20T22:52:00.486Z,18.62
2019-06-20T22:54:29.034Z,18.56
2019-06-20T22:56:57.436Z,18.52
2019-06-20T22:59:25.837Z,18.50
2019-06-20T23:01:54.267Z,18.47
2019-06-20T23:04:22.670Z,18.43
2019-06-20T23:06:56.211Z,18.41
2019-06-20T23:09:21.264Z,18.39
2019-06-20T23:11:51.172Z,18.39
2019-06-20T23:14:19.551Z,18.41
2019-06-20T23:16:47.979Z,18.45
2019-06-20T23:19:16.378Z,18.46
2019-06-20T23:21:44.891Z,18.44
2019-06-20T23:24:13.411Z,18.43
2019-06-20T23:26:41.816Z,18.41
2019-06-20T23:29:25.309Z,18.38
2019-06-20T23:31:54.916Z,18.38
2019-06-20T23:34:23.786Z,18.40
2019-06-20T23:36:52.306Z,18.39
2019-06-20T23:39:20.774Z,18.37
2019-06-20T23:41:49.243Z,18.38
2019-06-20T23:44:17.826Z,18.38
2019-06-20T23:46:46.282Z,18.38
2019-06-20T23:49:14.690Z,18.38
2019-06-20T23:54:21.362Z,18.34
2019-06-20T23:56:49.788Z,18.25
2019-06-20T23:59:18.332Z,18.25
